createdAt,value
2023-03-04T00:02:08.802Z,1
2023-03-04T00:12:08.591Z,1
2023-03-04T00:22:08.706Z,1
2023-03-04T00:32:08.720Z,1
2023-03-04T00:42:08.709Z,1
2023-03-04T00:52:08.783Z,1
2023-03-04T01:02:08.765Z,1
2023-03-04T01:12:08.779Z,1
2023-03-04T01:22:08.702Z,1
2023-03-04T01:32:08.808Z,1
2023-03-04T01:42:08.678Z,1
2023-03-04T01:52:08.764Z,1
2023-03-04T02:02:08.887Z,1
2023-03-04T02:12:08.766Z,1
2023-03-04T02:22:08.891Z,1
2023-03-04T02:32:08.763Z,1
2023-03-04T02:42:08.881Z,1
2023-03-04T02:52:08.756Z,1
2023-03-04T03:02:08.922Z,1
2023-03-04T03:12:08.740Z,1
2023-03-04T03:22:08.879Z,1
2023-03-04T03:32:08.983Z,1
2023-03-04T03:42:08.869Z,1
2023-03-04T03:52:08.930Z,1
2023-03-04T04:02:09.090Z,1
2023-03-04T04:12:08.937Z,1
2023-03-04T04:22:08.850Z,1
2023-03-04T04:32:08.976Z,1
2023-03-04T04:42:08.854Z,1
2023-03-04T04:52:08.928Z,1
2023-03-04T05:02:09.076Z,1
2023-03-04T05:12:08.927Z,1
2023-03-04T05:22:09.056Z,1
2023-03-04T05:32:08.975Z,1
2023-03-04T05:42:09.048Z,1
2023-03-04T05:52:08.927Z,1
2023-03-04T06:02:09.045Z,1
2023-03-04T06:12:08.905Z,1
2023-03-04T06:22:09.036Z,1
2023-03-04T06:32:09.124Z,3
2023-03-04T06:42:09.032Z,11
2023-03-04T06:52:09.108Z,25
2023-03-04T07:02:09.031Z,39
2023-03-04T07:12:09.108Z,51
2023-03-04T07:22:09.030Z,63
2023-03-04T07:32:09.246Z,72
2023-03-04T07:42:09.018Z,76
2023-03-04T07:52:09.100Z,79
2023-03-04T08:02:09.221Z,82
2023-03-04T08:12:09.093Z,84
2023-03-04T08:22:09.227Z,86
2023-03-04T08:32:09.187Z,87
2023-03-04T08:42:09.198Z,88
2023-03-04T08:52:09.091Z,89
2023-03-04T09:02:09.201Z,89
2023-03-04T09:12:09.277Z,90
2023-03-04T09:22:09.194Z,91
2023-03-04T09:32:09.294Z,91
2023-03-04T09:42:09.196Z,91
2023-03-04T09:52:09.281Z,92
2023-03-04T10:02:09.206Z,92
2023-03-04T10:12:09.263Z,92
2023-03-04T10:22:09.401Z,93
2023-03-04T10:32:10.899Z,93
2023-03-04T10:42:09.442Z,93
2023-03-04T10:52:09.371Z,94
2023-03-04T11:02:09.391Z,94
2023-03-04T11:12:09.224Z,94
2023-03-04T11:22:09.343Z,94
2023-03-04T11:32:09.348Z,94
2023-03-04T11:42:09.376Z,94
2023-03-04T11:52:09.462Z,94
2023-03-04T12:02:09.584Z,94
2023-03-04T12:12:09.476Z,94
2023-03-04T12:22:09.647Z,94
2023-03-04T12:32:09.455Z,94
2023-03-04T12:42:09.350Z,94
2023-03-04T12:52:09.438Z,94
2023-03-04T13:02:09.413Z,94
2023-03-04T13:12:09.413Z,94
2023-03-04T13:22:09.538Z,94
2023-03-04T13:32:09.488Z,94
2023-03-04T13:42:09.585Z,94
2023-03-04T13:52:09.388Z,93
2023-03-04T14:02:09.521Z,93
2023-03-04T14:12:09.410Z,93
2023-03-04T14:22:09.612Z,93
2023-03-04T14:32:09.659Z,93
2023-03-04T14:42:09.526Z,93
2023-03-04T14:52:09.616Z,92
2023-03-04T15:02:09.560Z,92
2023-03-04T15:12:09.620Z,92
2023-03-04T15:22:09.552Z,92
2023-03-04T15:32:09.980Z,91
2023-03-04T15:42:09.541Z,91
2023-03-04T15:52:09.661Z,91
2023-03-04T16:02:09.581Z,90
2023-03-04T16:12:09.592Z,90
2023-03-04T16:22:09.599Z,89
2023-03-04T16:32:09.675Z,88
2023-03-04T16:42:09.725Z,85
2023-03-04T16:52:09.610Z,85
2023-03-04T17:02:09.723Z,82
2023-03-04T17:12:09.575Z,81
2023-03-04T17:22:09.696Z,75
2023-03-04T17:32:09.621Z,66
2023-03-04T17:42:09.831Z,53
2023-03-04T17:52:10.095Z,40
2023-03-04T18:02:09.922Z,24
2023-03-04T18:12:09.732Z,11
2023-03-04T18:22:09.732Z,3
2023-03-04T18:32:09.875Z,1
2023-03-04T18:42:09.987Z,1
2023-03-04T18:52:09.812Z,1
2023-03-04T19:02:09.719Z,1
2023-03-04T19:12:09.802Z,1
2023-03-04T19:22:09.724Z,1
2023-03-04T19:32:09.843Z,1
2023-03-04T19:42:09.718Z,1
2023-03-04T19:52:09.798Z,1
2023-03-04T20:02:09.928Z,1
2023-03-04T20:12:09.925Z,1
2023-03-04T20:22:09.919Z,1
2023-03-04T20:32:09.831Z,1
2023-03-04T20:42:10.125Z,1
2023-03-04T20:52:09.763Z,1
2023-03-04T21:02:09.896Z,1
2023-03-04T21:12:10.087Z,1
2023-03-04T21:22:09.914Z,1
2023-03-04T21:32:23.072Z,1
2023-03-04T21:42:09.899Z,1
2023-03-04T21:52:09.845Z,1
2023-03-04T22:02:10.007Z,1
2023-03-04T22:12:10.065Z,1
2023-03-04T22:22:10.192Z,1
2023-03-04T22:32:10.116Z,1
2023-03-04T22:42:10.220Z,1
2023-03-04T22:52:10.245Z,1
2023-03-04T23:02:10.252Z,1
2023-03-04T23:12:10.032Z,1
2023-03-04T23:22:10.034Z,1
2023-03-04T23:32:10.055Z,1
2023-03-04T23:42:10.150Z,1
2023-03-04T23:52:10.033Z,1
